Llagostera, Spain
Current Conditions -  °F | °C
As of 9:30 AM on Wednesday 22 Oct 2014 (Local Time) from LEGE Reporting Station
Few Clouds Few Clouds  
Wind Chill: 57°   Ceiling: Unl
Heat Index: 57°   Visibility: 6mi
Dew Point: 45°   Wind: 7mph
Humidity: 63%   Direction: 40°NE
Pressure: 30.18"   Gusts: NA
Location:  41.83°N, 2.89°E
Report Text: LEGE 220730Z 04006KT 010V070 9999 FEW015 14/07 Q1022
Loading
Personal Weather Stations






























Interactive Weather Map
Tropical Storm Tracking
New forecast layout! Learn more

10-Day Weather Forecast

Advertisements
Track Severe Weather on mobile